Main page
METAR-TAF:

METAR-TAF

Airports :

South Texas International Airport at Edinburg

Edinburg, Texas, United States

latitude: 26-26-31N, longitude: 098-07-46W, elevation: 79 ft

Current weather observation

The report was made 26 minutes ago, at 21:55 UTC
Wind 15 mph from the South/Southeast with gusts up to 26 mph
Temperature 82°F
Humidity 51%
Pressure 29.75 in. Hg
Visibility: 10 miles
Scattered clouds at a height of 4000 ft

METAR: KEBG 172155Z AUTO 16013G23KT 10SM SCT040 28/17 A2975 RMK AO2 T02750167

Time: 16:21 (22:21 UTC)


TAF: missing

Weather observations and forecasts of more than 4000 airports (METAR and TAF reports).

The available stations are represented by yellow and red dots on the map.

Hover mouse over dot to see the name of the station.

Then click to see weather observations and forecasts.

To change the map : click on the green buttons with a black cross to zoom in, on the green button with a dash to zoom out, or on the green arrows for adjacent maps.


METAR-TAF: